sensor_id;sensor_type;location;lat;lon;timestamp;temperature;humidity
68350;DHT22;55268;-34.538;-58.598;2022-07-06T10:00:45;11.10;84.00
68350;DHT22;55268;-34.538;-58.598;2022-07-06T10:03:22;11.10;84.00
68350;DHT22;55268;-34.538;-58.598;2022-07-06T10:05:50;11.20;83.70
68350;DHT22;55268;-34.538;-58.598;2022-07-06T10:08:20;11.20;83.80
68350;DHT22;55268;-34.538;-58.598;2022-07-06T10:10:49;11.20;83.50
68350;DHT22;55268;-34.538;-58.598;2022-07-06T10:13:20;11.20;83.30
68350;DHT22;55268;-34.538;-58.598;2022-07-06T10:15:48;11.20;83.30
68350;DHT22;55268;-34.538;-58.598;2022-07-06T10:18:18;11.20;83.20
68350;DHT22;55268;-34.538;-58.598;2022-07-06T10:20:48;11.30;82.90
68350;DHT22;55268;-34.538;-58.598;2022-07-06T10:23:15;11.30;82.50
68350;DHT22;55268;-34.538;-58.598;2022-07-06T10:25:43;11.30;82.30
68350;DHT22;55268;-34.538;-58.598;2022-07-06T10:28:14;11.40;82.20
68350;DHT22;55268;-34.538;-58.598;2022-07-06T10:30:45;11.30;82.10
68350;DHT22;55268;-34.538;-58.598;2022-07-06T10:33:15;11.40;81.90
68350;DHT22;55268;-34.538;-58.598;2022-07-06T10:35:43;11.40;82.00
68350;DHT22;55268;-34.538;-58.598;2022-07-06T10:38:14;11.40;81.90
68350;DHT22;55268;-34.538;-58.598;2022-07-06T10:40:43;11.40;81.80
68350;DHT22;55268;-34.538;-58.598;2022-07-06T10:43:38;11.30;82.00
68350;DHT22;55268;-34.538;-58.598;2022-07-06T10:46:11;11.40;81.50
68350;DHT22;55268;-34.538;-58.598;2022-07-06T10:48:42;11.30;81.60
68350;DHT22;55268;-34.538;-58.598;2022-07-06T10:51:12;11.40;81.10
68350;DHT22;55268;-34.538;-58.598;2022-07-06T10:53:56;11.30;81.00
68350;DHT22;55268;-34.538;-58.598;2022-07-06T10:56:32;11.30;80.90
68350;DHT22;55268;-34.538;-58.598;2022-07-06T10:59:05;11.30;81.00
68350;DHT22;55268;-34.538;-58.598;2022-07-06T11:01:37;11.30;80.90
68350;DHT22;55268;-34.538;-58.598;2022-07-06T11:04:06;11.30;80.70
68350;DHT22;55268;-34.538;-58.598;2022-07-06T11:06:36;11.30;80.70
68350;DHT22;55268;-34.538;-58.598;2022-07-06T11:09:11;11.20;80.90
68350;DHT22;55268;-34.538;-58.598;2022-07-06T11:11:42;11.20;80.60
68350;DHT22;55268;-34.538;-58.598;2022-07-06T11:14:15;11.20;80.50
68350;DHT22;55268;-34.538;-58.598;2022-07-06T11:19:21;11.20;80.60
68350;DHT22;55268;-34.538;-58.598;2022-07-06T11:21:54;11.20;80.60
68350;DHT22;55268;-34.538;-58.598;2022-07-06T11:24:28;11.20;80.60
68350;DHT22;55268;-34.538;-58.598;2022-07-06T11:26:57;11.20;80.50
68350;DHT22;55268;-34.538;-58.598;2022-07-06T11:29:28;11.20;80.30
68350;DHT22;55268;-34.538;-58.598;2022-07-06T11:31:58;11.10;80.40
68350;DHT22;55268;-34.538;-58.598;2022-07-06T11:34:31;11.10;80.50
68350;DHT22;55268;-34.538;-58.598;2022-07-06T11:37:01;11.10;80.60
68350;DHT22;55268;-34.538;-58.598;2022-07-06T11:39:32;11.10;80.70
68350;DHT22;55268;-34.538;-58.598;2022-07-06T11:42:02;11.10;80.80
68350;DHT22;55268;-34.538;-58.598;2022-07-06T11:44:31;11.10;80.80
68350;DHT22;55268;-34.538;-58.598;2022-07-06T11:46:58;11.10;80.80
68350;DHT22;55268;-34.538;-58.598;2022-07-06T11:49:31;11.10;80.90
68350;DHT22;55268;-34.538;-58.598;2022-07-06T11:52:05;11.10;80.90
68350;DHT22;55268;-34.538;-58.598;2022-07-06T11:54:32;11.10;80.90
68350;DHT22;55268;-34.538;-58.598;2022-07-06T11:57:00;11.10;81.10
68350;DHT22;55268;-34.538;-58.598;2022-07-06T11:59:30;11.20;81.00
68350;DHT22;55268;-34.538;-58.598;2022-07-06T12:02:10;11.20;81.00
68350;DHT22;55268;-34.538;-58.598;2022-07-06T12:04:39;11.20;81.10
68350;DHT22;55268;-34.538;-58.598;2022-07-06T12:07:10;11.20;81.20
68350;DHT22;55268;-34.538;-58.598;2022-07-06T12:09:41;11.20;81.10
68350;DHT22;55268;-34.538;-58.598;2022-07-06T12:12:09;11.20;81.00
68350;DHT22;55268;-34.538;-58.598;2022-07-06T12:14:37;11.20;81.00
68350;DHT22;55268;-34.538;-58.598;2022-07-06T12:17:08;11.20;81.10
68350;DHT22;55268;-34.538;-58.598;2022-07-06T12:19:38;11.30;81.30
68350;DHT22;55268;-34.538;-58.598;2022-07-06T12:22:07;11.20;81.20
68350;DHT22;55268;-34.538;-58.598;2022-07-06T12:24:34;11.20;81.30
68350;DHT22;55268;-34.538;-58.598;2022-07-06T12:27:23;11.30;81.40
68350;DHT22;55268;-34.538;-58.598;2022-07-06T12:29:52;11.20;81.50
68350;DHT22;55268;-34.538;-58.598;2022-07-06T12:32:21;11.20;81.40
68350;DHT22;55268;-34.538;-58.598;2022-07-06T12:35:04;11.20;81.80
68350;DHT22;55268;-34.538;-58.598;2022-07-06T12:37:33;11.30;81.80
68350;DHT22;55268;-34.538;-58.598;2022-07-06T12:40:11;11.20;81.70
68350;DHT22;55268;-34.538;-58.598;2022-07-06T12:42:47;11.30;82.00
68350;DHT22;55268;-34.538;-58.598;2022-07-06T12:45:14;11.30;81.90
68350;DHT22;55268;-34.538;-58.598;2022-07-06T12:47:59;11.30;81.90
68350;DHT22;55268;-34.538;-58.598;2022-07-06T12:53:00;11.30;82.20
68350;DHT22;55268;-34.538;-58.598;2022-07-06T12:55:28;11.30;82.20
68350;DHT22;55268;-34.538;-58.598;2022-07-06T12:57:57;11.30;82.10
68350;DHT22;55268;-34.538;-58.598;2022-07-06T13:00:27;11.30;82.20
68350;DHT22;55268;-34.538;-58.598;2022-07-06T13:02:54;11.30;82.40
68350;DHT22;55268;-34.538;-58.598;2022-07-06T13:05:24;11.30;82.40
68350;DHT22;55268;-34.538;-58.598;2022-07-06T13:07:57;11.40;82.40
68350;DHT22;55268;-34.538;-58.598;2022-07-06T13:10:26;11.40;82.70
68350;DHT22;55268;-34.538;-58.598;2022-07-06T13:12:53;11.40;82.70
68350;DHT22;55268;-34.538;-58.598;2022-07-06T13:15:20;11.40;82.60
68350;DHT22;55268;-34.538;-58.598;2022-07-06T13:17:49;11.40;82.60
68350;DHT22;55268;-34.538;-58.598;2022-07-06T13:20:18;11.50;82.60
68350;DHT22;55268;-34.538;-58.598;2022-07-06T13:22:45;11.50;82.60
68350;DHT22;55268;-34.538;-58.598;2022-07-06T13:25:12;11.50;82.60
68350;DHT22;55268;-34.538;-58.598;2022-07-06T13:27:41;11.50;82.70
68350;DHT22;55268;-34.538;-58.598;2022-07-06T13:30:11;11.50;82.60
68350;DHT22;55268;-34.538;-58.598;2022-07-06T13:32:38;11.60;82.90
68350;DHT22;55268;-34.538;-58.598;2022-07-06T13:35:06;11.50;83.10
68350;DHT22;55268;-34.538;-58.598;2022-07-06T13:37:35;11.60;83.40
68350;DHT22;55268;-34.538;-58.598;2022-07-06T13:40:05;11.60;83.60
68350;DHT22;55268;-34.538;-58.598;2022-07-06T13:42:32;11.60;83.70
68350;DHT22;55268;-34.538;-58.598;2022-07-06T13:44:59;11.60;83.80
68350;DHT22;55268;-34.538;-58.598;2022-07-06T13:47:30;11.60;83.80
68350;DHT22;55268;-34.538;-58.598;2022-07-06T13:49:59;11.60;83.80
68350;DHT22;55268;-34.538;-58.598;2022-07-06T13:52:26;11.60;83.80
68350;DHT22;55268;-34.538;-58.598;2022-07-06T13:54:53;11.60;83.80
68350;DHT22;55268;-34.538;-58.598;2022-07-06T13:57:22;11.60;83.90
68350;DHT22;55268;-34.538;-58.598;2022-07-06T13:59:51;11.60;84.10
68350;DHT22;55268;-34.538;-58.598;2022-07-06T14:02:18;11.70;84.10
68350;DHT22;55268;-34.538;-58.598;2022-07-06T14:04:45;11.70;84.20
68350;DHT22;55268;-34.538;-58.598;2022-07-06T14:07:14;11.70;84.20
68350;DHT22;55268;-34.538;-58.598;2022-07-06T14:09:44;11.70;84.20
68350;DHT22;55268;-34.538;-58.598;2022-07-06T14:12:11;11.80;84.60
68350;DHT22;55268;-34.538;-58.598;2022-07-06T14:14:38;11.80;84.50
68350;DHT22;55268;-34.538;-58.598;2022-07-06T14:17:05;11.90;84.40
68350;DHT22;55268;-34.538;-58.598;2022-07-06T14:19:34;11.90;84.40
68350;DHT22;55268;-34.538;-58.598;2022-07-06T14:22:03;11.90;84.40
68350;DHT22;55268;-34.538;-58.598;2022-07-06T14:24:30;11.90;84.70
68350;DHT22;55268;-34.538;-58.598;2022-07-06T14:26:57;11.90;84.70
68350;DHT22;55268;-34.538;-58.598;2022-07-06T14:29:26;12.00;85.00
68350;DHT22;55268;-34.538;-58.598;2022-07-06T14:31:55;12.00;85.00
68350;DHT22;55268;-34.538;-58.598;2022-07-06T14:34:22;12.00;85.00
68350;DHT22;55268;-34.538;-58.598;2022-07-06T14:36:50;12.00;85.40
68350;DHT22;55268;-34.538;-58.598;2022-07-06T14:39:20;12.00;85.80
68350;DHT22;55268;-34.538;-58.598;2022-07-06T14:41:49;12.00;86.20
68350;DHT22;55268;-34.538;-58.598;2022-07-06T14:44:16;12.00;86.20
68350;DHT22;55268;-34.538;-58.598;2022-07-06T14:46:43;12.00;86.40
68350;DHT22;55268;-34.538;-58.598;2022-07-06T14:49:12;12.00;86.40
68350;DHT22;55268;-34.538;-58.598;2022-07-06T14:51:41;12.00;86.40
68350;DHT22;55268;-34.538;-58.598;2022-07-06T14:54:08;12.00;86.80
68350;DHT22;55268;-34.538;-58.598;2022-07-06T14:56:35;12.00;86.80
68350;DHT22;55268;-34.538;-58.598;2022-07-06T14:59:04;12.00;86.70
68350;DHT22;55268;-34.538;-58.598;2022-07-06T15:01:34;12.00;86.80
68350;DHT22;55268;-34.538;-58.598;2022-07-06T15:04:01;12.00;86.70
68350;DHT22;55268;-34.538;-58.598;2022-07-06T15:06:29;12.00;86.70
68350;DHT22;55268;-34.538;-58.598;2022-07-06T15:08:58;12.10;86.60
68350;DHT22;55268;-34.538;-58.598;2022-07-06T15:11:27;12.10;86.30
68350;DHT22;55268;-34.538;-58.598;2022-07-06T15:13:54;12.10;86.30
68350;DHT22;55268;-34.538;-58.598;2022-07-06T15:16:21;12.10;86.20
68350;DHT22;55268;-34.538;-58.598;2022-07-06T15:18:50;12.10;86.40
68350;DHT22;55268;-34.538;-58.598;2022-07-06T15:21:21;12.10;86.50
68350;DHT22;55268;-34.538;-58.598;2022-07-06T15:23:48;12.10;86.60
68350;DHT22;55268;-34.538;-58.598;2022-07-06T15:26:15;12.10;86.90
68350;DHT22;55268;-34.538;-58.598;2022-07-06T15:28:44;12.10;87.10
68350;DHT22;55268;-34.538;-58.598;2022-07-06T15:31:13;12.10;87.10
68350;DHT22;55268;-34.538;-58.598;2022-07-06T15:33:40;12.10;87.30
68350;DHT22;55268;-34.538;-58.598;2022-07-06T15:36:07;12.20;87.50
68350;DHT22;55268;-34.538;-58.598;2022-07-06T15:38:36;12.20;87.40
68350;DHT22;55268;-34.538;-58.598;2022-07-06T15:41:06;12.20;87.60
68350;DHT22;55268;-34.538;-58.598;2022-07-06T15:43:34;12.20;87.50
68350;DHT22;55268;-34.538;-58.598;2022-07-06T15:46:03;12.20;87.40
68350;DHT22;55268;-34.538;-58.598;2022-07-06T15:48:32;12.20;87.40
68350;DHT22;55268;-34.538;-58.598;2022-07-06T15:51:02;12.20;87.50
68350;DHT22;55268;-34.538;-58.598;2022-07-06T15:53:29;12.30;87.30
68350;DHT22;55268;-34.538;-58.598;2022-07-06T15:55:57;12.30;87.20
68350;DHT22;55268;-34.538;-58.598;2022-07-06T15:58:26;12.30;87.30
68350;DHT22;55268;-34.538;-58.598;2022-07-06T16:01:04;12.20;87.20
68350;DHT22;55268;-34.538;-58.598;2022-07-06T16:06:53;12.30;87.50
68350;DHT22;55268;-34.538;-58.598;2022-07-06T16:09:22;12.30;87.50
68350;DHT22;55268;-34.538;-58.598;2022-07-06T16:11:51;12.30;87.40
68350;DHT22;55268;-34.538;-58.598;2022-07-06T16:14:18;12.30;87.50
68350;DHT22;55268;-34.538;-58.598;2022-07-06T16:16:45;12.30;87.30
68350;DHT22;55268;-34.538;-58.598;2022-07-06T16:19:14;12.30;87.10
68350;DHT22;55268;-34.538;-58.598;2022-07-06T16:21:43;12.30;87.20
68350;DHT22;55268;-34.538;-58.598;2022-07-06T16:24:10;12.30;87.40
68350;DHT22;55268;-34.538;-58.598;2022-07-06T16:26:38;12.30;87.30
68350;DHT22;55268;-34.538;-58.598;2022-07-06T16:29:09;12.40;87.50
68350;DHT22;55268;-34.538;-58.598;2022-07-06T16:31:38;12.40;87.30
68350;DHT22;55268;-34.538;-58.598;2022-07-06T16:34:05;12.40;87.40
68350;DHT22;55268;-34.538;-58.598;2022-07-06T16:36:32;12.40;87.50
68350;DHT22;55268;-34.538;-58.598;2022-07-06T16:39:01;12.40;87.70
68350;DHT22;55268;-34.538;-58.598;2022-07-06T16:41:30;12.50;87.90
68350;DHT22;55268;-34.538;-58.598;2022-07-06T16:43:57;12.50;87.90
68350;DHT22;55268;-34.538;-58.598;2022-07-06T16:46:24;12.50;87.90
68350;DHT22;55268;-34.538;-58.598;2022-07-06T16:48:54;12.50;88.00
68350;DHT22;55268;-34.538;-58.598;2022-07-06T16:51:23;12.50;87.80
68350;DHT22;55268;-34.538;-58.598;2022-07-06T16:53:50;12.50;87.90
68350;DHT22;55268;-34.538;-58.598;2022-07-06T16:56:17;12.50;88.00
68350;DHT22;55268;-34.538;-58.598;2022-07-06T16:58:47;12.50;88.20
68350;DHT22;55268;-34.538;-58.598;2022-07-06T17:01:16;12.50;88.20
68350;DHT22;55268;-34.538;-58.598;2022-07-06T17:03:46;12.60;88.40
68350;DHT22;55268;-34.538;-58.598;2022-07-06T17:06:13;12.60;88.20
68350;DHT22;55268;-34.538;-58.598;2022-07-06T17:08:42;12.60;88.40
68350;DHT22;55268;-34.538;-58.598;2022-07-06T17:11:12;12.70;88.30
68350;DHT22;55268;-34.538;-58.598;2022-07-06T17:13:39;12.70;88.40
68350;DHT22;55268;-34.538;-58.598;2022-07-06T17:16:06;12.70;88.50
68350;DHT22;55268;-34.538;-58.598;2022-07-06T17:18:35;12.80;88.70
68350;DHT22;55268;-34.538;-58.598;2022-07-06T17:21:04;12.80;88.60
68350;DHT22;55268;-34.538;-58.598;2022-07-06T17:23:32;12.80;88.80
68350;DHT22;55268;-34.538;-58.598;2022-07-06T17:25:59;12.80;88.60
68350;DHT22;55268;-34.538;-58.598;2022-07-06T17:28:29;12.80;88.90
68350;DHT22;55268;-34.538;-58.598;2022-07-06T17:30:58;12.90;88.70
68350;DHT22;55268;-34.538;-58.598;2022-07-06T17:33:26;12.90;88.60
68350;DHT22;55268;-34.538;-58.598;2022-07-06T17:35:55;12.90;88.60
68350;DHT22;55268;-34.538;-58.598;2022-07-06T17:38:24;12.90;88.90
68350;DHT22;55268;-34.538;-58.598;2022-07-06T17:40:53;12.90;88.60
68350;DHT22;55268;-34.538;-58.598;2022-07-06T18:00:31;13.00;88.80
68350;DHT22;55268;-34.538;-58.598;2022-07-06T18:03:00;13.00;88.70
68350;DHT22;55268;-34.538;-58.598;2022-07-06T18:05:28;13.00;88.60
68350;DHT22;55268;-34.538;-58.598;2022-07-06T18:07:59;13.00;88.60
68350;DHT22;55268;-34.538;-58.598;2022-07-06T18:10:27;13.00;88.60
68350;DHT22;55268;-34.538;-58.598;2022-07-06T18:12:54;13.10;88.70
68350;DHT22;55268;-34.538;-58.598;2022-07-06T18:15:22;13.10;88.90
68350;DHT22;55268;-34.538;-58.598;2022-07-06T18:17:51;13.10;89.00
68350;DHT22;55268;-34.538;-58.598;2022-07-06T18:20:21;13.10;89.10
68350;DHT22;55268;-34.538;-58.598;2022-07-06T18:22:49;13.10;88.90
68350;DHT22;55268;-34.538;-58.598;2022-07-06T18:25:15;13.20;88.80
68350;DHT22;55268;-34.538;-58.598;2022-07-06T18:27:45;13.20;88.90
68350;DHT22;55268;-34.538;-58.598;2022-07-06T18:30:14;13.20;88.70
68350;DHT22;55268;-34.538;-58.598;2022-07-06T18:32:41;13.20;88.80
68350;DHT22;55268;-34.538;-58.598;2022-07-06T18:35:10;13.20;88.80
68350;DHT22;55268;-34.538;-58.598;2022-07-06T18:37:57;13.20;88.90
68350;DHT22;55268;-34.538;-58.598;2022-07-06T18:40:26;13.20;88.60
68350;DHT22;55268;-34.538;-58.598;2022-07-06T18:42:54;13.20;88.70
68350;DHT22;55268;-34.538;-58.598;2022-07-06T18:45:21;13.20;88.60
68350;DHT22;55268;-34.538;-58.598;2022-07-06T18:47:51;13.20;88.40
68350;DHT22;55268;-34.538;-58.598;2022-07-06T18:50:21;13.20;88.30
